Time;durP1;ratioP1;P1;durP2;ratioP2;P2;SDS_P1;SDS_P2;PMS_P1;PMS_P2;Temp;Humidity;BMP_temperature;BMP_pressure;BME280_temperature;BME280_humidity;BME280_pressure;Samples;Min_cycle;Max_cycle;Signal;HPM_P1;HPM_P2
2023/08/03 00:02:42;;;;;;;;;;;;;;;16.91;100.00;99072.00;21103576;27;19931;-62
2023/08/03 00:13:03;;;;;;;;;;;;;;;16.81;100.00;99065.91;21098178;27;19931;-62
2023/08/03 00:23:25;;;;;;;;;;;;;;;16.80;100.00;99062.47;21097520;28;20326;-62
2023/08/03 00:33:46;;;;;;;;;;;;;;;16.81;100.00;99051.03;21094738;27;19924;-62
2023/08/03 00:44:08;;;;;;;;;;;;;;;16.80;100.00;99048.56;21086578;28;19950;-62
2023/08/03 00:54:29;;;;;;;;;;;;;;;16.83;100.00;99043.06;21098489;27;19928;-62
2023/08/03 01:04:51;;;;;;;;;;;;;;;16.88;100.00;99027.84;21094057;27;20014;-62
2023/08/03 01:15:12;;;;;;;;;;;;;;;16.90;100.00;99018.91;21075398;27;20364;-62
2023/08/03 01:25:34;;;;;;;;;;;;;;;16.94;100.00;99001.19;21091325;27;19928;-61
2023/08/03 01:35:56;;;;;;;;;;;;;;;16.91;100.00;98993.63;21095280;28;20253;-62
2023/08/03 01:46:17;;;;;;;;;;;;;;;16.93;100.00;98982.09;21097529;28;19930;-62
2023/08/03 01:56:39;;;;;;;;;;;;;;;16.96;100.00;98979.19;21102620;28;20581;-62
2023/08/03 02:07:08;;;;;;;;;;;;;;;16.92;100.00;98980.41;21102740;27;19934;-61
2023/08/03 02:17:29;;;;;;;;;;;;;;;16.85;100.00;98958.38;21095658;27;20368;-62
2023/08/03 02:27:53;;;;;;;;;;;;;;;16.86;100.00;98960.06;21115268;27;21577;-62
2023/08/03 02:38:14;;;;;;;;;;;;;;;16.89;100.00;98959.78;21103773;27;20027;-62
2023/08/03 02:48:36;;;;;;;;;;;;;;;16.88;100.00;98957.31;21087193;27;19924;-62
2023/08/03 02:58:57;;;;;;;;;;;;;;;16.90;100.00;98956.19;21119747;27;20592;-62
2023/08/03 03:09:19;;;;;;;;;;;;;;;16.91;100.00;98941.34;21102415;27;19930;-62
2023/08/03 03:19:40;;;;;;;;;;;;;;;16.94;100.00;98947.13;21097978;27;20351;-62
2023/08/03 03:30:02;;;;;;;;;;;;;;;16.96;100.00;98949.63;21100813;27;20011;-62
2023/08/03 03:40:23;;;;;;;;;;;;;;;16.93;100.00;98945.50;21104740;27;20268;-62
2023/08/03 03:50:45;;;;;;;;;;;;;;;16.93;100.00;98968.19;21116070;27;19928;-62
2023/08/03 04:01:06;;;;;;;;;;;;;;;16.91;100.00;98976.16;21097361;27;20329;-62
2023/08/03 04:11:28;;;;;;;;;;;;;;;16.94;100.00;98986.34;21090581;27;19954;-62
2023/08/03 04:21:49;;;;;;;;;;;;;;;16.96;100.00;98994.88;21096741;28;19928;-62
2023/08/03 04:32:11;;;;;;;;;;;;;;;16.99;100.00;99002.44;21097874;27;19943;-62
2023/08/03 04:42:32;;;;;;;;;;;;;;;17.02;100.00;99017.88;21099306;28;19982;-62
2023/08/03 04:52:54;;;;;;;;;;;;;;;17.07;100.00;99015.69;21097116;27;19985;-62
2023/08/03 05:03:15;;;;;;;;;;;;;;;17.14;100.00;99036.09;21107089;27;19924;-62
2023/08/03 05:13:37;;;;;;;;;;;;;;;17.18;100.00;99043.53;21089561;27;20280;-62
2023/08/03 05:23:58;;;;;;;;;;;;;;;17.20;100.00;99052.06;21095642;27;20033;-62
2023/08/03 05:34:20;;;;;;;;;;;;;;;17.21;100.00;99064.19;21094525;28;19927;-61
2023/08/03 05:44:41;;;;;;;;;;;;;;;17.18;100.00;99087.16;21097729;28;19927;-61
2023/08/03 05:55:03;;;;;;;;;;;;;;;17.13;100.00;99098.00;21092348;28;19963;-62
2023/08/03 06:05:43;;;;;;;;;;;;;;;17.10;100.00;99108.72;21087958;28;19934;-62
2023/08/03 06:16:08;;;;;;;;;;;;;;;17.09;100.00;99126.19;21104748;28;19928;-62
2023/08/03 06:26:31;;;;;;;;;;;;;;;17.19;100.00;99143.69;21090155;28;19931;-62
2023/08/03 06:36:53;;;;;;;;;;;;;;;17.34;100.00;99160.72;21065853;28;20308;-62
2023/08/03 06:47:15;;;;;;;;;;;;;;;17.42;100.00;99164.34;21097993;28;19958;-63
2023/08/03 06:57:36;;;;;;;;;;;;;;;17.67;100.00;99178.81;21107643;27;19928;-62
2023/08/03 07:07:58;;;;;;;;;;;;;;;17.78;100.00;99184.75;21119072;27;19923;-62
2023/08/03 07:18:19;;;;;;;;;;;;;;;17.97;100.00;99205.78;21107077;27;19923;-62
2023/08/03 07:28:41;;;;;;;;;;;;;;;18.09;100.00;99209.94;21103316;27;19931;-62
2023/08/03 07:39:02;;;;;;;;;;;;;;;18.00;100.00;99209.94;21101129;27;19939;-62
2023/08/03 07:49:24;;;;;;;;;;;;;;;17.88;100.00;99201.34;21099266;27;19928;-62
2023/08/03 07:59:49;;;;;;;;;;;;;;;17.72;100.00;99215.88;21084107;27;19933;-62
2023/08/03 08:10:11;;;;;;;;;;;;;;;17.50;100.00;99277.03;21104489;27;20418;-61
2023/08/03 08:20:32;;;;;;;;;;;;;;;17.29;100.00;99311.94;21095892;28;20023;-61
2023/08/03 08:30:54;;;;;;;;;;;;;;;17.27;100.00;99335.56;21121907;27;20602;-61
2023/08/03 08:41:15;;;;;;;;;;;;;;;17.19;100.00;99351.06;21098813;27;19927;-62
2023/08/03 08:51:37;;;;;;;;;;;;;;;17.22;100.00;99369.13;21087377;27;19942;-61
2023/08/03 09:02:02;;;;;;;;;;;;;;;17.64;100.00;99394.44;21061028;27;19928;-61
2023/08/03 09:12:25;;;;;;;;;;;;;;;18.06;100.00;99403.13;21083619;27;19943;-61
2023/08/03 09:22:47;;;;;;;;;;;;;;;18.36;100.00;99397.94;21090856;27;19928;-62
2023/08/03 09:33:14;;;;;;;;;;;;;;;18.68;100.00;99422.25;21093548;28;19931;-61
2023/08/03 09:43:39;;;;;;;;;;;;;;;19.17;100.00;99433.75;21085924;28;19927;-62
2023/08/03 09:54:06;;;;;;;;;;;;;;;19.13;100.00;99455.94;21084000;28;19924;-61
2023/08/03 10:04:33;;;;;;;;;;;;;;;19.18;100.00;99472.09;21092643;28;19939;-61
2023/08/03 10:14:57;;;;;;;;;;;;;;;19.52;100.00;99481.34;21093250;28;20422;-61
2023/08/03 10:25:19;;;;;;;;;;;;;;;19.45;100.00;99494.19;21080816;28;19927;-61
2023/08/03 10:35:41;;;;;;;;;;;;;;;19.76;98.45;99511.50;21087908;27;19924;-61
2023/08/03 10:46:22;;;;;;;;;;;;;;;20.25;98.70;99529.00;21100710;27;19927;-61
2023/08/03 10:57:06;;;;;;;;;;;;;;;20.37;95.06;99538.38;21095121;27;19931;-62
2023/08/03 11:07:32;;;;;;;;;;;;;;;20.37;94.34;99551.50;21106269;27;19931;-61
2023/08/03 11:17:54;;;;;;;;;;;;;;;20.98;87.62;99558.06;21106298;27;19996;-61
2023/08/03 11:28:16;;;;;;;;;;;;;;;21.56;85.40;99577.09;21105284;27;19927;-61
2023/08/03 11:38:39;;;;;;;;;;;;;;;21.62;84.91;99584.44;21091061;27;19974;-61
2023/08/03 11:49:02;;;;;;;;;;;;;;;22.14;80.58;99595.25;21106907;27;20024;-61
2023/08/03 11:59:24;;;;;;;;;;;;;;;21.89;83.23;99615.22;21083703;27;19928;-60
2023/08/03 12:09:50;;;;;;;;;;;;;;;22.02;79.52;99639.41;21112070;27;19934;-61
2023/08/03 12:20:11;;;;;;;;;;;;;;;22.07;83.07;99637.16;21079752;27;20030;-61
2023/08/03 12:30:33;;;;;;;;;;;;;;;21.98;81.29;99656.50;21089137;27;19934;-61
2023/08/03 12:40:54;;;;;;;;;;;;;;;22.10;80.62;99670.31;21099182;27;19923;-61
2023/08/03 12:51:17;;;;;;;;;;;;;;;22.43;80.65;99677.59;21094690;27;19934;-61
2023/08/03 13:01:38;;;;;;;;;;;;;;;22.20;80.96;99703.53;21101946;27;20360;-62
2023/08/03 13:12:00;;;;;;;;;;;;;;;21.87;83.59;99743.63;21095067;27;19928;-62
2023/08/03 13:22:21;;;;;;;;;;;;;;;21.55;85.33;99759.78;21095828;27;20356;-61
2023/08/03 13:32:44;;;;;;;;;;;;;;;21.70;84.06;99770.72;21098776;28;19928;-62
2023/08/03 13:43:06;;;;;;;;;;;;;;;21.70;84.79;99789.97;21106531;27;19930;-61
2023/08/03 13:53:27;;;;;;;;;;;;;;;22.03;84.72;99791.28;21107855;28;19932;-61
2023/08/03 14:03:48;;;;;;;;;;;;;;;22.08;80.44;99820.69;21118456;28;19928;-61
2023/08/03 14:14:10;;;;;;;;;;;;;;;21.93;80.23;99835.28;21107553;27;20503;-61
2023/08/03 14:24:52;;;;;;;;;;;;;;;22.05;77.22;99849.13;21107265;27;19923;-61
2023/08/03 14:35:17;;;;;;;;;;;;;;;22.46;74.48;99861.88;21088604;27;20522;-61
2023/08/03 14:45:47;;;;;;;;;;;;;;;22.52;75.83;99867.44;21111215;27;19928;-61
2023/08/03 14:56:10;;;;;;;;;;;;;;;22.35;78.63;99904.25;21106993;27;19930;-62
2023/08/03 15:06:34;;;;;;;;;;;;;;;22.02;77.59;99916.13;21103818;27;19931;-62
2023/08/03 15:16:59;;;;;;;;;;;;;;;22.37;76.41;99940.06;21107286;27;19928;-62
2023/08/03 15:27:40;;;;;;;;;;;;;;;22.21;78.43;99957.44;21106854;27;19939;-62
2023/08/03 15:38:20;;;;;;;;;;;;;;;22.18;77.78;99969.09;21120014;27;20003;-62
2023/08/03 15:48:44;;;;;;;;;;;;;;;21.98;75.83;99988.53;21109499;27;20015;-61
2023/08/03 15:59:08;;;;;;;;;;;;;;;21.73;79.56;100010.97;21080830;27;20459;-61
2023/08/03 16:09:30;;;;;;;;;;;;;;;21.21;84.39;100044.59;21090466;27;20535;-62
2023/08/03 16:19:51;;;;;;;;;;;;;;;20.99;88.01;100054.38;21093725;27;19930;-62
2023/08/03 16:30:13;;;;;;;;;;;;;;;20.52;86.11;100090.84;21093629;28;19995;-62
2023/08/03 16:40:34;;;;;;;;;;;;;;;20.28;87.85;100133.13;21089709;27;20083;-61
2023/08/03 16:50:56;;;;;;;;;;;;;;;20.13;87.09;100165.84;21096850;27;19925;-62
2023/08/03 17:01:17;;;;;;;;;;;;;;;20.04;87.21;100183.19;21091984;28;19927;-61
2023/08/03 17:11:39;;;;;;;;;;;;;;;19.79;86.41;100225.50;21092161;28;20265;-61
2023/08/03 17:22:01;;;;;;;;;;;;;;;19.42;91.21;100246.78;21092474;27;19928;-61
2023/08/03 17:32:22;;;;;;;;;;;;;;;19.16;95.03;100271.47;21076611;27;20010;-61
2023/08/03 17:42:44;;;;;;;;;;;;;;;18.97;96.47;100288.56;21077172;28;19931;-61
2023/08/03 17:53:07;;;;;;;;;;;;;;;18.93;95.94;100316.00;21090878;28;20389;-61
2023/08/03 18:03:29;;;;;;;;;;;;;;;18.84;97.47;100334.19;21088630;28;19974;-62
2023/08/03 18:13:51;;;;;;;;;;;;;;;18.87;97.37;100339.19;21086964;28;19932;-61
2023/08/03 18:24:14;;;;;;;;;;;;;;;18.82;97.23;100367.53;21098738;27;19931;-61
2023/08/03 18:34:36;;;;;;;;;;;;;;;18.87;97.64;100376.75;21102933;28;19934;-61
2023/08/03 18:44:57;;;;;;;;;;;;;;;18.88;97.21;100394.13;21093733;27;19924;-61
2023/08/03 18:55:19;;;;;;;;;;;;;;;18.83;98.60;100424.25;21097044;27;19927;-60
2023/08/03 19:05:41;;;;;;;;;;;;;;;18.79;97.77;100441.16;21110141;27;20488;-60
2023/08/03 19:16:03;;;;;;;;;;;;;;;18.79;97.94;100468.22;21096377;27;19928;-61
2023/08/03 19:26:24;;;;;;;;;;;;;;;18.81;96.43;100489.06;21094205;28;19930;-61
2023/08/03 19:36:46;;;;;;;;;;;;;;;18.76;95.10;100515.63;21098549;27;20354;-61
2023/08/03 19:47:08;;;;;;;;;;;;;;;18.65;94.82;100535.66;21100912;27;20295;-61
2023/08/03 19:57:29;;;;;;;;;;;;;;;18.60;95.99;100561.34;21110053;27;20392;-62
2023/08/03 20:07:54;;;;;;;;;;;;;;;18.48;96.03;100577.88;21095324;27;19923;-61
2023/08/03 20:18:33;;;;;;;;;;;;;;;18.29;96.07;100583.47;21096704;28;20015;-62
2023/08/03 20:28:55;;;;;;;;;;;;;;;18.17;96.83;100594.75;21085044;27;19936;-61
2023/08/03 20:39:25;;;;;;;;;;;;;;;18.12;96.87;100616.94;21096751;27;19967;-61
2023/08/03 20:49:49;;;;;;;;;;;;;;;18.02;97.19;100637.63;21093432;27;19931;-61
2023/08/03 21:00:11;;;;;;;;;;;;;;;17.95;97.95;100660.75;21099587;27;19927;-61
2023/08/03 21:10:40;;;;;;;;;;;;;;;17.85;97.70;100667.53;21097960;27;19935;-61
2023/08/03 21:21:12;;;;;;;;;;;;;;;17.76;96.99;100683.78;21087803;28;19924;-61
2023/08/03 21:31:33;;;;;;;;;;;;;;;17.69;96.45;100692.13;21087968;27;19935;-61
2023/08/03 21:41:58;;;;;;;;;;;;;;;17.58;96.63;100707.66;21087174;28;19935;-61
2023/08/03 21:52:19;;;;;;;;;;;;;;;17.42;97.59;100717.28;21072674;28;19932;-60
2023/08/03 22:02:40;;;;;;;;;;;;;;;17.46;96.49;100731.88;21079604;28;19940;-60
2023/08/03 22:13:02;;;;;;;;;;;;;;;17.45;96.02;100741.50;21092375;28;19978;-60
2023/08/03 22:23:24;;;;;;;;;;;;;;;17.43;95.13;100753.00;21106609;28;19951;-61
2023/08/03 22:33:45;;;;;;;;;;;;;;;17.38;94.81;100755.88;21111971;27;19927;-61
2023/08/03 22:44:07;;;;;;;;;;;;;;;17.36;94.55;100764.78;21099306;28;19931;-60
2023/08/03 22:54:29;;;;;;;;;;;;;;;17.40;94.15;100779.34;21112921;28;19924;-61
2023/08/03 23:04:50;;;;;;;;;;;;;;;17.39;94.34;100798.59;21096453;28;19924;-61
2023/08/03 23:15:12;;;;;;;;;;;;;;;17.41;94.13;100807.19;21100791;28;20387;-60
2023/08/03 23:25:34;;;;;;;;;;;;;;;17.43;94.19;100816.66;21104057;27;19928;-61
2023/08/03 23:35:55;;;;;;;;;;;;;;;17.41;93.78;100822.91;21103084;27;19971;-60
2023/08/03 23:46:16;;;;;;;;;;;;;;;17.31;94.20;100816.50;21115269;27;19928;-60
2023/08/03 23:56:38;;;;;;;;;;;;;;;17.25;94.57;100843.03;21074666;27;19931;-60
